sensor_id;sensor_type;location;lat;lon;timestamp;temperature;humidity
10282;DHT22;5186;59.472;18.048;2023-07-02T00:01:12;16.50;99.90
10282;DHT22;5186;59.472;18.048;2023-07-02T00:03:38;16.50;99.90
10282;DHT22;5186;59.472;18.048;2023-07-02T00:06:04;16.50;99.90
10282;DHT22;5186;59.472;18.048;2023-07-02T00:08:30;16.50;99.90
10282;DHT22;5186;59.472;18.048;2023-07-02T00:10:56;16.50;99.90
10282;DHT22;5186;59.472;18.048;2023-07-02T00:13:21;16.40;99.90
10282;DHT22;5186;59.472;18.048;2023-07-02T00:15:47;16.40;99.90
10282;DHT22;5186;59.472;18.048;2023-07-02T00:18:13;16.30;99.90
10282;DHT22;5186;59.472;18.048;2023-07-02T00:20:41;16.20;99.90
10282;DHT22;5186;59.472;18.048;2023-07-02T00:23:07;16.20;99.90
10282;DHT22;5186;59.472;18.048;2023-07-02T00:25:37;16.10;99.90
10282;DHT22;5186;59.472;18.048;2023-07-02T00:28:03;16.00;99.90
10282;DHT22;5186;59.472;18.048;2023-07-02T00:30:29;16.00;99.90
10282;DHT22;5186;59.472;18.048;2023-07-02T00:32:55;15.90;99.90
10282;DHT22;5186;59.472;18.048;2023-07-02T00:35:21;15.90;99.90
10282;DHT22;5186;59.472;18.048;2023-07-02T00:37:49;15.80;99.90
10282;DHT22;5186;59.472;18.048;2023-07-02T00:40:16;15.80;99.90
10282;DHT22;5186;59.472;18.048;2023-07-02T00:42:46;15.80;99.90
10282;DHT22;5186;59.472;18.048;2023-07-02T00:45:12;15.70;99.90
10282;DHT22;5186;59.472;18.048;2023-07-02T00:47:40;15.60;99.90
10282;DHT22;5186;59.472;18.048;2023-07-02T00:50:07;15.60;99.90
10282;DHT22;5186;59.472;18.048;2023-07-02T00:52:35;15.50;99.90
10282;DHT22;5186;59.472;18.048;2023-07-02T00:55:01;15.50;99.90
10282;DHT22;5186;59.472;18.048;2023-07-02T00:57:27;15.40;99.90
10282;DHT22;5186;59.472;18.048;2023-07-02T00:59:56;15.40;99.90
10282;DHT22;5186;59.472;18.048;2023-07-02T01:02:22;15.30;99.90
10282;DHT22;5186;59.472;18.048;2023-07-02T01:04:51;15.30;99.90
10282;DHT22;5186;59.472;18.048;2023-07-02T01:07:23;15.20;99.90
10282;DHT22;5186;59.472;18.048;2023-07-02T01:09:48;15.20;99.90
10282;DHT22;5186;59.472;18.048;2023-07-02T01:12:15;15.20;99.90
10282;DHT22;5186;59.472;18.048;2023-07-02T01:14:50;15.20;99.90
10282;DHT22;5186;59.472;18.048;2023-07-02T01:17:17;15.20;99.90
10282;DHT22;5186;59.472;18.048;2023-07-02T01:19:54;15.10;99.90
10282;DHT22;5186;59.472;18.048;2023-07-02T01:22:27;15.10;99.90
10282;DHT22;5186;59.472;18.048;2023-07-02T01:24:54;15.00;99.90
10282;DHT22;5186;59.472;18.048;2023-07-02T01:27:20;15.00;99.90
10282;DHT22;5186;59.472;18.048;2023-07-02T01:29:46;14.90;99.90
10282;DHT22;5186;59.472;18.048;2023-07-02T01:32:13;14.90;99.90
10282;DHT22;5186;59.472;18.048;2023-07-02T01:34:38;14.80;99.90
10282;DHT22;5186;59.472;18.048;2023-07-02T01:37:04;14.80;99.90
10282;DHT22;5186;59.472;18.048;2023-07-02T01:39:30;14.70;99.90
10282;DHT22;5186;59.472;18.048;2023-07-02T01:42:09;14.80;99.90
10282;DHT22;5186;59.472;18.048;2023-07-02T01:44:35;14.90;99.90
10282;DHT22;5186;59.472;18.048;2023-07-02T01:47:01;14.90;99.90
10282;DHT22;5186;59.472;18.048;2023-07-02T01:49:27;14.80;99.90
10282;DHT22;5186;59.472;18.048;2023-07-02T01:51:54;14.80;99.90
10282;DHT22;5186;59.472;18.048;2023-07-02T01:54:21;14.80;99.90
10282;DHT22;5186;59.472;18.048;2023-07-02T01:56:47;14.70;99.90
10282;DHT22;5186;59.472;18.048;2023-07-02T01:59:13;14.70;99.90
10282;DHT22;5186;59.472;18.048;2023-07-02T02:01:39;14.80;99.90
10282;DHT22;5186;59.472;18.048;2023-07-02T02:04:08;14.70;99.90
10282;DHT22;5186;59.472;18.048;2023-07-02T02:06:34;14.80;99.90
10282;DHT22;5186;59.472;18.048;2023-07-02T02:09:00;14.80;99.90
10282;DHT22;5186;59.472;18.048;2023-07-02T02:11:26;14.80;99.90
10282;DHT22;5186;59.472;18.048;2023-07-02T02:13:52;14.80;99.90
10282;DHT22;5186;59.472;18.048;2023-07-02T02:16:17;14.80;99.90
10282;DHT22;5186;59.472;18.048;2023-07-02T02:18:43;14.80;99.90
10282;DHT22;5186;59.472;18.048;2023-07-02T02:21:09;14.90;99.90
10282;DHT22;5186;59.472;18.048;2023-07-02T02:23:34;14.80;99.90
10282;DHT22;5186;59.472;18.048;2023-07-02T02:26:00;14.90;99.90
10282;DHT22;5186;59.472;18.048;2023-07-02T02:28:26;14.80;99.90
10282;DHT22;5186;59.472;18.048;2023-07-02T02:30:51;14.90;99.90
10282;DHT22;5186;59.472;18.048;2023-07-02T02:33:17;14.90;99.90
10282;DHT22;5186;59.472;18.048;2023-07-02T02:35:42;14.90;99.90
10282;DHT22;5186;59.472;18.048;2023-07-02T02:38:08;14.90;99.90
10282;DHT22;5186;59.472;18.048;2023-07-02T02:40:34;15.00;99.90
10282;DHT22;5186;59.472;18.048;2023-07-02T02:43:00;15.00;99.90
10282;DHT22;5186;59.472;18.048;2023-07-02T02:45:25;15.10;99.90
10282;DHT22;5186;59.472;18.048;2023-07-02T02:47:51;15.10;99.90
10282;DHT22;5186;59.472;18.048;2023-07-02T02:50:17;15.20;99.90
10282;DHT22;5186;59.472;18.048;2023-07-02T02:52:42;15.20;99.90
10282;DHT22;5186;59.472;18.048;2023-07-02T02:55:09;15.30;99.90
10282;DHT22;5186;59.472;18.048;2023-07-02T02:57:36;15.30;99.90
10282;DHT22;5186;59.472;18.048;2023-07-02T03:00:02;15.30;99.90
10282;DHT22;5186;59.472;18.048;2023-07-02T03:02:28;15.40;99.90
10282;DHT22;5186;59.472;18.048;2023-07-02T03:04:53;15.40;99.90
10282;DHT22;5186;59.472;18.048;2023-07-02T03:07:19;15.40;99.90
10282;DHT22;5186;59.472;18.048;2023-07-02T03:09:45;15.40;99.90
10282;DHT22;5186;59.472;18.048;2023-07-02T03:12:11;15.40;99.90
10282;DHT22;5186;59.472;18.048;2023-07-02T03:14:36;15.40;99.90
10282;DHT22;5186;59.472;18.048;2023-07-02T03:17:02;15.40;99.90
10282;DHT22;5186;59.472;18.048;2023-07-02T03:19:28;15.50;99.90
10282;DHT22;5186;59.472;18.048;2023-07-02T03:21:54;15.50;99.90
10282;DHT22;5186;59.472;18.048;2023-07-02T03:24:19;15.60;99.90
10282;DHT22;5186;59.472;18.048;2023-07-02T03:26:45;15.60;99.90
10282;DHT22;5186;59.472;18.048;2023-07-02T03:29:11;15.60;99.90
10282;DHT22;5186;59.472;18.048;2023-07-02T03:31:37;15.60;99.90
10282;DHT22;5186;59.472;18.048;2023-07-02T03:34:09;15.70;99.90
10282;DHT22;5186;59.472;18.048;2023-07-02T03:36:35;15.80;99.90
10282;DHT22;5186;59.472;18.048;2023-07-02T03:39:01;15.80;99.90
10282;DHT22;5186;59.472;18.048;2023-07-02T03:41:28;15.90;99.90
10282;DHT22;5186;59.472;18.048;2023-07-02T03:43:53;15.90;99.90
10282;DHT22;5186;59.472;18.048;2023-07-02T03:46:19;15.90;99.90
10282;DHT22;5186;59.472;18.048;2023-07-02T03:48:44;16.00;99.90
10282;DHT22;5186;59.472;18.048;2023-07-02T03:51:11;16.00;99.90
10282;DHT22;5186;59.472;18.048;2023-07-02T03:53:42;16.10;99.90
10282;DHT22;5186;59.472;18.048;2023-07-02T03:56:08;16.10;99.90
10282;DHT22;5186;59.472;18.048;2023-07-02T03:58:33;16.20;99.90
10282;DHT22;5186;59.472;18.048;2023-07-02T04:00:59;16.20;99.90
10282;DHT22;5186;59.472;18.048;2023-07-02T04:03:25;16.20;99.90
10282;DHT22;5186;59.472;18.048;2023-07-02T04:05:51;16.20;99.90
10282;DHT22;5186;59.472;18.048;2023-07-02T04:08:16;16.30;99.90
10282;DHT22;5186;59.472;18.048;2023-07-02T04:10:42;16.30;99.90
10282;DHT22;5186;59.472;18.048;2023-07-02T04:13:08;16.40;99.90
10282;DHT22;5186;59.472;18.048;2023-07-02T04:15:35;16.40;99.90
10282;DHT22;5186;59.472;18.048;2023-07-02T04:18:00;16.40;99.90
10282;DHT22;5186;59.472;18.048;2023-07-02T04:20:27;16.40;99.90
10282;DHT22;5186;59.472;18.048;2023-07-02T04:22:54;16.40;99.90
10282;DHT22;5186;59.472;18.048;2023-07-02T04:25:19;16.50;99.90
10282;DHT22;5186;59.472;18.048;2023-07-02T04:27:45;16.50;99.90
10282;DHT22;5186;59.472;18.048;2023-07-02T04:30:11;16.50;99.90
10282;DHT22;5186;59.472;18.048;2023-07-02T04:32:38;16.60;99.90
10282;DHT22;5186;59.472;18.048;2023-07-02T04:35:07;16.60;99.90
10282;DHT22;5186;59.472;18.048;2023-07-02T04:37:34;16.60;99.90
10282;DHT22;5186;59.472;18.048;2023-07-02T04:39:59;16.70;99.90
10282;DHT22;5186;59.472;18.048;2023-07-02T04:42:26;16.70;99.90
10282;DHT22;5186;59.472;18.048;2023-07-02T04:44:53;16.70;99.90
10282;DHT22;5186;59.472;18.048;2023-07-02T04:47:19;16.80;99.90
10282;DHT22;5186;59.472;18.048;2023-07-02T04:49:45;16.90;99.90
10282;DHT22;5186;59.472;18.048;2023-07-02T04:52:11;16.90;99.90
10282;DHT22;5186;59.472;18.048;2023-07-02T04:54:37;16.90;99.90
10282;DHT22;5186;59.472;18.048;2023-07-02T04:57:03;17.00;99.90
10282;DHT22;5186;59.472;18.048;2023-07-02T04:59:29;17.00;99.90
10282;DHT22;5186;59.472;18.048;2023-07-02T05:01:54;17.10;99.90
10282;DHT22;5186;59.472;18.048;2023-07-02T05:04:20;17.20;99.90
10282;DHT22;5186;59.472;18.048;2023-07-02T05:06:46;17.20;99.90
10282;DHT22;5186;59.472;18.048;2023-07-02T05:09:11;17.20;99.90
10282;DHT22;5186;59.472;18.048;2023-07-02T05:11:37;17.30;99.90
10282;DHT22;5186;59.472;18.048;2023-07-02T05:14:02;17.30;99.90
10282;DHT22;5186;59.472;18.048;2023-07-02T05:16:28;17.30;99.90
10282;DHT22;5186;59.472;18.048;2023-07-02T05:18:54;17.40;99.90
10282;DHT22;5186;59.472;18.048;2023-07-02T05:21:20;17.50;99.90
10282;DHT22;5186;59.472;18.048;2023-07-02T05:23:46;17.50;99.90
10282;DHT22;5186;59.472;18.048;2023-07-02T05:26:12;17.60;99.90
10282;DHT22;5186;59.472;18.048;2023-07-02T05:28:38;17.60;99.90
10282;DHT22;5186;59.472;18.048;2023-07-02T05:31:03;17.60;99.90
10282;DHT22;5186;59.472;18.048;2023-07-02T05:33:29;17.70;99.90
10282;DHT22;5186;59.472;18.048;2023-07-02T05:35:56;17.70;99.90
10282;DHT22;5186;59.472;18.048;2023-07-02T05:38:22;17.80;99.90
10282;DHT22;5186;59.472;18.048;2023-07-02T05:40:47;17.80;99.90
10282;DHT22;5186;59.472;18.048;2023-07-02T05:43:13;17.80;99.90
10282;DHT22;5186;59.472;18.048;2023-07-02T05:45:39;17.80;99.90
10282;DHT22;5186;59.472;18.048;2023-07-02T05:48:04;17.80;99.90
10282;DHT22;5186;59.472;18.048;2023-07-02T05:50:30;17.90;99.90
10282;DHT22;5186;59.472;18.048;2023-07-02T05:52:55;18.00;99.90
10282;DHT22;5186;59.472;18.048;2023-07-02T05:55:21;18.00;99.90
10282;DHT22;5186;59.472;18.048;2023-07-02T05:57:47;18.10;99.90
10282;DHT22;5186;59.472;18.048;2023-07-02T06:00:13;18.20;99.90
10282;DHT22;5186;59.472;18.048;2023-07-02T06:02:38;18.20;99.90
10282;DHT22;5186;59.472;18.048;2023-07-02T06:05:04;18.30;99.90
10282;DHT22;5186;59.472;18.048;2023-07-02T06:07:30;18.30;99.90
10282;DHT22;5186;59.472;18.048;2023-07-02T06:09:55;18.30;99.90
10282;DHT22;5186;59.472;18.048;2023-07-02T06:12:21;18.30;99.90
10282;DHT22;5186;59.472;18.048;2023-07-02T06:14:47;18.30;99.90
10282;DHT22;5186;59.472;18.048;2023-07-02T06:17:13;18.40;99.90
10282;DHT22;5186;59.472;18.048;2023-07-02T06:19:39;18.40;99.90
10282;DHT22;5186;59.472;18.048;2023-07-02T06:22:04;18.40;99.90
10282;DHT22;5186;59.472;18.048;2023-07-02T06:24:30;18.50;99.90
10282;DHT22;5186;59.472;18.048;2023-07-02T06:26:56;18.60;99.90
10282;DHT22;5186;59.472;18.048;2023-07-02T06:29:23;18.60;99.90
10282;DHT22;5186;59.472;18.048;2023-07-02T06:31:49;18.60;99.90
10282;DHT22;5186;59.472;18.048;2023-07-02T06:34:15;18.70;99.90
10282;DHT22;5186;59.472;18.048;2023-07-02T06:36:41;18.80;99.90
10282;DHT22;5186;59.472;18.048;2023-07-02T06:39:06;18.90;99.90
10282;DHT22;5186;59.472;18.048;2023-07-02T06:41:33;18.90;99.90
10282;DHT22;5186;59.472;18.048;2023-07-02T06:44:00;18.90;99.90
10282;DHT22;5186;59.472;18.048;2023-07-02T06:46:25;18.90;99.90
10282;DHT22;5186;59.472;18.048;2023-07-02T06:48:51;18.90;99.90
10282;DHT22;5186;59.472;18.048;2023-07-02T06:51:16;18.90;99.90
10282;DHT22;5186;59.472;18.048;2023-07-02T06:53:44;19.00;99.90
10282;DHT22;5186;59.472;18.048;2023-07-02T06:56:10;19.00;99.90
10282;DHT22;5186;59.472;18.048;2023-07-02T06:58:36;19.00;99.90
10282;DHT22;5186;59.472;18.048;2023-07-02T07:01:01;19.00;99.90
10282;DHT22;5186;59.472;18.048;2023-07-02T07:03:27;19.10;99.90
10282;DHT22;5186;59.472;18.048;2023-07-02T07:05:53;19.10;99.90
10282;DHT22;5186;59.472;18.048;2023-07-02T07:08:19;19.20;99.90
10282;DHT22;5186;59.472;18.048;2023-07-02T07:10:45;19.20;99.90
10282;DHT22;5186;59.472;18.048;2023-07-02T07:13:11;19.20;99.90
10282;DHT22;5186;59.472;18.048;2023-07-02T07:15:37;19.20;99.90
10282;DHT22;5186;59.472;18.048;2023-07-02T07:18:03;19.10;99.90
10282;DHT22;5186;59.472;18.048;2023-07-02T07:20:30;19.20;99.90
10282;DHT22;5186;59.472;18.048;2023-07-02T07:22:56;19.20;99.90
10282;DHT22;5186;59.472;18.048;2023-07-02T07:25:22;19.20;99.90
10282;DHT22;5186;59.472;18.048;2023-07-02T07:27:48;19.20;99.90
10282;DHT22;5186;59.472;18.048;2023-07-02T07:30:13;19.20;99.90
10282;DHT22;5186;59.472;18.048;2023-07-02T07:32:40;19.20;99.90
10282;DHT22;5186;59.472;18.048;2023-07-02T07:35:07;19.20;99.90
10282;DHT22;5186;59.472;18.048;2023-07-02T07:37:33;19.20;99.90
10282;DHT22;5186;59.472;18.048;2023-07-02T07:39:58;19.20;99.90
10282;DHT22;5186;59.472;18.048;2023-07-02T07:42:24;19.20;99.90
10282;DHT22;5186;59.472;18.048;2023-07-02T07:44:50;19.20;99.90
10282;DHT22;5186;59.472;18.048;2023-07-02T07:47:15;19.10;99.90
10282;DHT22;5186;59.472;18.048;2023-07-02T07:49:41;19.10;99.90
10282;DHT22;5186;59.472;18.048;2023-07-02T07:52:07;19.20;99.90
10282;DHT22;5186;59.472;18.048;2023-07-02T07:54:33;19.20;99.90
10282;DHT22;5186;59.472;18.048;2023-07-02T07:57:03;19.20;99.90
10282;DHT22;5186;59.472;18.048;2023-07-02T07:59:36;19.20;99.90
10282;DHT22;5186;59.472;18.048;2023-07-02T08:02:02;19.20;99.90
10282;DHT22;5186;59.472;18.048;2023-07-02T08:04:28;19.10;99.90
10282;DHT22;5186;59.472;18.048;2023-07-02T08:06:53;19.10;99.90
10282;DHT22;5186;59.472;18.048;2023-07-02T08:09:20;19.10;99.90
10282;DHT22;5186;59.472;18.048;2023-07-02T08:11:46;19.00;99.90
10282;DHT22;5186;59.472;18.048;2023-07-02T08:14:12;19.10;99.90
10282;DHT22;5186;59.472;18.048;2023-07-02T08:16:38;19.10;99.90
10282;DHT22;5186;59.472;18.048;2023-07-02T08:19:03;19.00;99.90
10282;DHT22;5186;59.472;18.048;2023-07-02T08:21:29;19.00;99.90
10282;DHT22;5186;59.472;18.048;2023-07-02T08:23:54;19.00;99.90
10282;DHT22;5186;59.472;18.048;2023-07-02T08:26:20;18.90;99.90
10282;DHT22;5186;59.472;18.048;2023-07-02T08:28:45;18.80;99.90
10282;DHT22;5186;59.472;18.048;2023-07-02T08:31:11;18.70;99.90
10282;DHT22;5186;59.472;18.048;2023-07-02T08:33:37;18.70;99.90
10282;DHT22;5186;59.472;18.048;2023-07-02T08:36:02;18.60;99.90
10282;DHT22;5186;59.472;18.048;2023-07-02T08:38:28;18.60;99.90
10282;DHT22;5186;59.472;18.048;2023-07-02T08:40:53;18.50;99.90
10282;DHT22;5186;59.472;18.048;2023-07-02T08:43:19;18.50;99.90
10282;DHT22;5186;59.472;18.048;2023-07-02T08:45:45;18.40;99.90
10282;DHT22;5186;59.472;18.048;2023-07-02T08:48:11;18.30;99.90
10282;DHT22;5186;59.472;18.048;2023-07-02T08:50:37;18.30;99.90
10282;DHT22;5186;59.472;18.048;2023-07-02T08:53:02;18.30;99.90
10282;DHT22;5186;59.472;18.048;2023-07-02T08:55:28;18.20;99.90
10282;DHT22;5186;59.472;18.048;2023-07-02T08:57:56;18.20;99.90
10282;DHT22;5186;59.472;18.048;2023-07-02T09:00:26;18.10;99.90
10282;DHT22;5186;59.472;18.048;2023-07-02T09:02:52;18.20;99.90
10282;DHT22;5186;59.472;18.048;2023-07-02T09:05:18;18.10;99.90
10282;DHT22;5186;59.472;18.048;2023-07-02T09:07:47;18.10;99.90
10282;DHT22;5186;59.472;18.048;2023-07-02T09:10:26;18.10;99.90
10282;DHT22;5186;59.472;18.048;2023-07-02T09:13:05;18.10;99.90
10282;DHT22;5186;59.472;18.048;2023-07-02T09:15:41;18.00;99.90
10282;DHT22;5186;59.472;18.048;2023-07-02T09:18:22;18.00;99.90
10282;DHT22;5186;59.472;18.048;2023-07-02T09:20:52;17.90;99.90
10282;DHT22;5186;59.472;18.048;2023-07-02T09:23:19;17.80;99.90
10282;DHT22;5186;59.472;18.048;2023-07-02T09:25:45;17.70;99.90
10282;DHT22;5186;59.472;18.048;2023-07-02T09:28:29;17.70;99.90
10282;DHT22;5186;59.472;18.048;2023-07-02T09:30:56;17.60;99.90
10282;DHT22;5186;59.472;18.048;2023-07-02T09:33:27;17.50;99.90
10282;DHT22;5186;59.472;18.048;2023-07-02T09:35:53;17.50;99.90
10282;DHT22;5186;59.472;18.048;2023-07-02T09:38:20;17.40;99.90
10282;DHT22;5186;59.472;18.048;2023-07-02T09:40:48;17.40;99.90
10282;DHT22;5186;59.472;18.048;2023-07-02T09:43:15;17.40;99.90
10282;DHT22;5186;59.472;18.048;2023-07-02T09:45:46;17.40;99.90
10282;DHT22;5186;59.472;18.048;2023-07-02T09:48:16;17.40;99.90
10282;DHT22;5186;59.472;18.048;2023-07-02T09:50:45;17.40;99.90
10282;DHT22;5186;59.472;18.048;2023-07-02T09:53:12;17.40;99.90
10282;DHT22;5186;59.472;18.048;2023-07-02T09:55:42;17.40;99.90
10282;DHT22;5186;59.472;18.048;2023-07-02T09:58:09;17.40;99.90
10282;DHT22;5186;59.472;18.048;2023-07-02T10:00:35;17.40;99.90
10282;DHT22;5186;59.472;18.048;2023-07-02T10:03:01;17.40;99.90
10282;DHT22;5186;59.472;18.048;2023-07-02T10:05:31;17.50;99.90
10282;DHT22;5186;59.472;18.048;2023-07-02T10:07:58;17.50;99.90
10282;DHT22;5186;59.472;18.048;2023-07-02T10:10:31;17.70;99.90
10282;DHT22;5186;59.472;18.048;2023-07-02T10:12:57;17.80;99.90
10282;DHT22;5186;59.472;18.048;2023-07-02T10:15:30;17.90;99.90
10282;DHT22;5186;59.472;18.048;2023-07-02T10:17:58;18.00;99.90
10282;DHT22;5186;59.472;18.048;2023-07-02T10:20:33;18.00;99.90
10282;DHT22;5186;59.472;18.048;2023-07-02T10:22:59;18.00;99.90
10282;DHT22;5186;59.472;18.048;2023-07-02T10:25:32;18.00;99.90
10282;DHT22;5186;59.472;18.048;2023-07-02T10:28:00;18.10;99.90
10282;DHT22;5186;59.472;18.048;2023-07-02T10:30:35;18.10;99.90
10282;DHT22;5186;59.472;18.048;2023-07-02T10:33:28;18.10;99.90
10282;DHT22;5186;59.472;18.048;2023-07-02T10:35:53;18.20;99.90
10282;DHT22;5186;59.472;18.048;2023-07-02T10:38:25;18.20;99.90
10282;DHT22;5186;59.472;18.048;2023-07-02T10:40:59;18.10;99.90
10282;DHT22;5186;59.472;18.048;2023-07-02T10:43:30;18.10;99.90
10282;DHT22;5186;59.472;18.048;2023-07-02T10:45:56;18.10;99.90
10282;DHT22;5186;59.472;18.048;2023-07-02T10:48:22;18.10;99.90
10282;DHT22;5186;59.472;18.048;2023-07-02T10:50:47;18.20;99.90
10282;DHT22;5186;59.472;18.048;2023-07-02T10:53:20;18.10;99.90
10282;DHT22;5186;59.472;18.048;2023-07-02T10:55:52;18.20;99.90
10282;DHT22;5186;59.472;18.048;2023-07-02T10:58:18;18.30;99.90
10282;DHT22;5186;59.472;18.048;2023-07-02T11:00:48;18.20;99.90
10282;DHT22;5186;59.472;18.048;2023-07-02T11:03:21;18.20;99.90
10282;DHT22;5186;59.472;18.048;2023-07-02T11:05:48;18.20;99.90
10282;DHT22;5186;59.472;18.048;2023-07-02T11:08:14;18.10;99.90
10282;DHT22;5186;59.472;18.048;2023-07-02T11:10:40;18.10;99.90
10282;DHT22;5186;59.472;18.048;2023-07-02T11:13:17;18.10;99.90
10282;DHT22;5186;59.472;18.048;2023-07-02T11:15:43;18.10;99.90
10282;DHT22;5186;59.472;18.048;2023-07-02T11:18:15;18.10;99.90
10282;DHT22;5186;59.472;18.048;2023-07-02T11:20:42;18.10;99.90
10282;DHT22;5186;59.472;18.048;2023-07-02T11:23:24;18.20;99.90
10282;DHT22;5186;59.472;18.048;2023-07-02T11:26:02;18.10;99.90
10282;DHT22;5186;59.472;18.048;2023-07-02T11:28:30;18.20;99.90
10282;DHT22;5186;59.472;18.048;2023-07-02T11:30:57;18.20;99.90
10282;DHT22;5186;59.472;18.048;2023-07-02T11:33:40;18.30;99.90
10282;DHT22;5186;59.472;18.048;2023-07-02T11:36:06;18.30;99.90
10282;DHT22;5186;59.472;18.048;2023-07-02T11:38:36;18.30;99.90
10282;DHT22;5186;59.472;18.048;2023-07-02T11:41:05;18.30;99.90
10282;DHT22;5186;59.472;18.048;2023-07-02T11:43:30;18.30;99.90
10282;DHT22;5186;59.472;18.048;2023-07-02T11:45:56;18.30;99.90
10282;DHT22;5186;59.472;18.048;2023-07-02T11:48:21;18.30;99.90
10282;DHT22;5186;59.472;18.048;2023-07-02T11:50:47;18.30;99.90
10282;DHT22;5186;59.472;18.048;2023-07-02T11:53:12;18.30;99.90
10282;DHT22;5186;59.472;18.048;2023-07-02T11:55:39;18.40;99.90
10282;DHT22;5186;59.472;18.048;2023-07-02T11:58:04;18.40;99.90
10282;DHT22;5186;59.472;18.048;2023-07-02T12:00:30;18.30;99.90
10282;DHT22;5186;59.472;18.048;2023-07-02T12:02:55;18.30;99.90
10282;DHT22;5186;59.472;18.048;2023-07-02T12:05:21;18.30;99.90
10282;DHT22;5186;59.472;18.048;2023-07-02T12:07:46;18.30;99.90
10282;DHT22;5186;59.472;18.048;2023-07-02T12:10:12;18.20;99.90
10282;DHT22;5186;59.472;18.048;2023-07-02T12:12:38;18.30;99.90
10282;DHT22;5186;59.472;18.048;2023-07-02T12:15:03;18.20;99.90
10282;DHT22;5186;59.472;18.048;2023-07-02T12:17:29;18.30;99.90
10282;DHT22;5186;59.472;18.048;2023-07-02T12:19:55;18.20;99.90
10282;DHT22;5186;59.472;18.048;2023-07-02T12:22:20;18.10;99.90
10282;DHT22;5186;59.472;18.048;2023-07-02T12:24:47;18.10;99.90
10282;DHT22;5186;59.472;18.048;2023-07-02T12:27:15;18.00;99.90
10282;DHT22;5186;59.472;18.048;2023-07-02T12:29:41;18.00;99.90
10282;DHT22;5186;59.472;18.048;2023-07-02T12:32:07;18.00;99.90
10282;DHT22;5186;59.472;18.048;2023-07-02T12:34:32;17.90;99.90
10282;DHT22;5186;59.472;18.048;2023-07-02T12:36:58;18.00;99.90
10282;DHT22;5186;59.472;18.048;2023-07-02T12:39:23;17.90;99.90
10282;DHT22;5186;59.472;18.048;2023-07-02T12:41:49;17.90;99.90
10282;DHT22;5186;59.472;18.048;2023-07-02T12:44:15;17.90;99.90
10282;DHT22;5186;59.472;18.048;2023-07-02T12:46:41;17.90;99.90
10282;DHT22;5186;59.472;18.048;2023-07-02T12:49:06;17.90;99.90
10282;DHT22;5186;59.472;18.048;2023-07-02T12:51:32;17.80;99.90
10282;DHT22;5186;59.472;18.048;2023-07-02T12:53:57;17.80;99.90
10282;DHT22;5186;59.472;18.048;2023-07-02T12:56:23;17.80;99.90
10282;DHT22;5186;59.472;18.048;2023-07-02T12:58:48;17.80;99.90
10282;DHT22;5186;59.472;18.048;2023-07-02T13:01:16;17.80;99.90
10282;DHT22;5186;59.472;18.048;2023-07-02T13:03:46;17.80;99.90
10282;DHT22;5186;59.472;18.048;2023-07-02T13:06:12;17.80;99.90
10282;DHT22;5186;59.472;18.048;2023-07-02T13:08:38;17.90;99.90
10282;DHT22;5186;59.472;18.048;2023-07-02T13:11:03;17.90;99.90
10282;DHT22;5186;59.472;18.048;2023-07-02T13:13:29;17.90;99.90
10282;DHT22;5186;59.472;18.048;2023-07-02T13:15:55;17.90;99.90
10282;DHT22;5186;59.472;18.048;2023-07-02T13:18:20;17.90;99.90
10282;DHT22;5186;59.472;18.048;2023-07-02T13:20:46;18.00;99.90
10282;DHT22;5186;59.472;18.048;2023-07-02T13:23:11;18.00;99.90
10282;DHT22;5186;59.472;18.048;2023-07-02T13:25:37;18.00;99.90
10282;DHT22;5186;59.472;18.048;2023-07-02T13:28:03;18.00;99.90
10282;DHT22;5186;59.472;18.048;2023-07-02T13:30:29;18.00;99.90
10282;DHT22;5186;59.472;18.048;2023-07-02T13:32:56;17.90;99.90
10282;DHT22;5186;59.472;18.048;2023-07-02T13:35:22;17.90;99.90
10282;DHT22;5186;59.472;18.048;2023-07-02T13:37:48;17.90;99.90
10282;DHT22;5186;59.472;18.048;2023-07-02T13:40:14;18.00;99.90
10282;DHT22;5186;59.472;18.048;2023-07-02T13:42:41;18.00;99.90
10282;DHT22;5186;59.472;18.048;2023-07-02T13:45:08;18.00;99.90
10282;DHT22;5186;59.472;18.048;2023-07-02T13:47:34;18.10;99.90
10282;DHT22;5186;59.472;18.048;2023-07-02T13:50:01;18.10;99.90
10282;DHT22;5186;59.472;18.048;2023-07-02T13:52:27;18.10;99.90
10282;DHT22;5186;59.472;18.048;2023-07-02T13:54:52;18.10;99.90
10282;DHT22;5186;59.472;18.048;2023-07-02T13:57:18;18.10;99.90
10282;DHT22;5186;59.472;18.048;2023-07-02T13:59:43;18.10;99.90
10282;DHT22;5186;59.472;18.048;2023-07-02T14:02:09;18.10;99.90
10282;DHT22;5186;59.472;18.048;2023-07-02T14:04:34;18.10;99.90
10282;DHT22;5186;59.472;18.048;2023-07-02T14:07:00;18.10;99.90
10282;DHT22;5186;59.472;18.048;2023-07-02T14:09:26;18.00;99.90
10282;DHT22;5186;59.472;18.048;2023-07-02T14:11:51;18.00;99.90
10282;DHT22;5186;59.472;18.048;2023-07-02T14:14:17;18.00;99.90
10282;DHT22;5186;59.472;18.048;2023-07-02T14:16:42;18.00;99.90
10282;DHT22;5186;59.472;18.048;2023-07-02T14:19:08;17.90;99.90
10282;DHT22;5186;59.472;18.048;2023-07-02T14:21:34;17.90;99.90
10282;DHT22;5186;59.472;18.048;2023-07-02T14:23:59;17.80;99.90
10282;DHT22;5186;59.472;18.048;2023-07-02T14:26:25;17.80;99.90
10282;DHT22;5186;59.472;18.048;2023-07-02T14:28:50;17.90;99.90
10282;DHT22;5186;59.472;18.048;2023-07-02T14:31:16;17.90;99.90
10282;DHT22;5186;59.472;18.048;2023-07-02T14:33:41;17.80;99.90
10282;DHT22;5186;59.472;18.048;2023-07-02T14:36:07;17.90;99.90
10282;DHT22;5186;59.472;18.048;2023-07-02T14:38:33;17.80;99.90
10282;DHT22;5186;59.472;18.048;2023-07-02T14:41:00;17.80;99.90
10282;DHT22;5186;59.472;18.048;2023-07-02T14:43:29;17.80;99.90
10282;DHT22;5186;59.472;18.048;2023-07-02T14:45:57;17.80;99.90
10282;DHT22;5186;59.472;18.048;2023-07-02T14:48:23;17.80;99.90
10282;DHT22;5186;59.472;18.048;2023-07-02T14:50:50;17.70;99.90
10282;DHT22;5186;59.472;18.048;2023-07-02T14:53:17;17.60;99.90
10282;DHT22;5186;59.472;18.048;2023-07-02T14:55:43;17.50;99.90
10282;DHT22;5186;59.472;18.048;2023-07-02T14:58:13;17.40;99.90
10282;DHT22;5186;59.472;18.048;2023-07-02T15:00:49;17.40;99.90
10282;DHT22;5186;59.472;18.048;2023-07-02T15:03:15;17.30;99.90
10282;DHT22;5186;59.472;18.048;2023-07-02T15:05:41;17.30;99.90
10282;DHT22;5186;59.472;18.048;2023-07-02T15:08:08;17.20;99.90
10282;DHT22;5186;59.472;18.048;2023-07-02T15:10:34;17.20;99.90
10282;DHT22;5186;59.472;18.048;2023-07-02T15:13:00;17.20;99.90
10282;DHT22;5186;59.472;18.048;2023-07-02T15:15:26;17.10;99.90
10282;DHT22;5186;59.472;18.048;2023-07-02T15:17:52;17.00;99.90
10282;DHT22;5186;59.472;18.048;2023-07-02T15:20:17;17.00;99.90
10282;DHT22;5186;59.472;18.048;2023-07-02T15:22:43;17.00;99.90
10282;DHT22;5186;59.472;18.048;2023-07-02T15:25:08;16.90;99.90
10282;DHT22;5186;59.472;18.048;2023-07-02T15:27:34;16.90;99.90